Terminal Aerodrome Forecast
Issued by NWS Cleveland, OH

Home | Current Version | Previous Version | Graphics & Text | Print | Product List | Glossary On
Versions: 1 2 3 4 5 6 7 8 9 10 11 12 13 14 15
089
FTUS41 KCLE 211730
TAFERI
TAF
KERI 211730Z 2118/2218 07009KT P6SM -SHRA SCT035 OVC060
     FM220300 15003KT P6SM BKN035
     FM221400 34008KT P6SM VCSH OVC030=

USA.gov is the U.S. government's official web portal to all federal, state and local government web resources and services.